Time;durP1;ratioP1;P1;durP2;ratioP2;P2;SDS_P1;SDS_P2;PMS_P1;PMS_P2;Temp;Humidity;BMP_temperature;BMP_pressure;BME280_temperature;BME280_humidity;BME280_pressure;Samples;Min_cycle;Max_cycle;Signal;HPM_P1;HPM_P2
2022/02/03 00:00:48;;;;;;;14.95;8.93;;;;;;;2.95;62.10;99519.30;1806034;77;21061;-58
2022/02/03 00:03:03;;;;;;;15.15;9.25;;;;;;;2.94;62.10;99519.78;1795741;76;21531;-58
2022/02/03 00:05:34;;;;;;;17.62;9.55;;;;;;;2.95;62.13;99520.13;1798816;77;21038;-59
2022/02/03 00:08:04;;;;;;;15.58;9.43;;;;;;;2.98;62.11;99517.34;1836995;76;21053;-60
2022/02/03 00:10:47;;;;;;;19.12;8.85;;;;;;;3.00;62.08;99522.45;1832529;76;21065;-60
2022/02/03 00:24:20;;;;;;;15.30;9.23;;;;;;;3.20;61.83;99526.40;1839622;76;21053;-58
2022/02/03 00:27:18;;;;;;;21.75;10.03;;;;;;;3.24;61.66;99523.14;1802202;77;21030;-58
2022/02/03 00:29:56;;;;;;;18.67;9.23;;;;;;;3.23;61.62;99527.95;1809358;77;21195;-59
2022/02/03 00:49:13;;;;;;;14.18;8.48;;;;;;;3.48;61.02;99517.68;1812910;77;21026;-58
2022/02/03 00:51:12;;;;;;;18.32;9.88;;;;;;;3.44;61.02;99512.29;1823465;76;21034;-58
2022/02/03 00:53:39;;;;;;;21.97;9.60;;;;;;;3.43;60.97;99512.39;1824364;77;21036;-58
2022/02/03 00:56:14;;;;;;;16.97;9.43;;;;;;;3.40;61.07;99509.53;1835850;76;21065;-58
2022/02/03 00:58:54;;;;;;;19.00;10.10;;;;;;;3.38;61.03;99514.00;1821741;76;21066;-58
2022/02/03 01:01:25;;;;;;;15.68;9.23;;;;;;;3.35;61.06;99510.30;1808633;76;21023;-58
2022/02/03 01:03:51;;;;;;;21.02;10.23;;;;;;;3.31;61.11;99505.77;1829692;76;22543;-59
2022/02/03 01:06:20;;;;;;;18.27;10.65;;;;;;;3.30;61.12;99514.95;1828576;76;21519;-58
2022/02/03 01:08:48;;;;;;;20.17;10.13;;;;;;;3.27;61.16;99508.64;1827534;76;21135;-58
2022/02/03 01:11:20;;;;;;;16.17;9.65;;;;;;;3.23;61.27;99514.52;1826711;76;21005;-59
2022/02/03 01:13:55;;;;;;;14.25;9.80;;;;;;;3.26;61.25;99514.32;1833281;76;21026;-58
2022/02/03 01:53:42;;;;;;;16.70;10.30;;;;;;;3.15;61.57;99528.45;1834901;76;21035;-59
2022/02/03 01:56:19;;;;;;;18.05;10.05;;;;;;;3.13;61.62;99523.83;1833608;76;20987;-59
2022/02/03 01:58:51;;;;;;;11.57;7.83;;;;;;;3.11;61.65;99522.63;1832899;76;21043;-59
2022/02/03 02:01:33;;;;;;;17.85;9.63;;;;;;;3.09;61.73;99517.98;1824734;76;21988;-59
2022/02/03 02:04:10;;;;;;;21.73;9.58;;;;;;;3.08;61.84;99518.91;1832793;76;21022;-59
2022/02/03 02:07:04;;;;;;;16.35;10.00;;;;;;;3.07;61.94;99522.42;1833579;76;21093;-59
2022/02/03 02:13:13;;;;;;;18.55;9.93;;;;;;;3.06;62.10;99519.48;1833056;76;21061;-59
2022/02/03 02:38:14;;;;;;;15.75;9.43;;;;;;;3.27;62.97;99526.38;1780539;78;21064;-59
2022/02/03 02:41:18;;;;;;;19.98;11.63;;;;;;;3.26;63.16;99523.87;1768342;79;21059;-58
2022/02/03 02:43:19;;;;;;;18.82;10.60;;;;;;;3.25;63.32;99517.02;1749744;78;21266;-59
2022/02/03 02:46:15;;;;;;;17.80;9.85;;;;;;;3.28;63.40;99518.95;1772032;79;21513;-58
2022/02/03 02:49:10;;;;;;;16.97;9.80;;;;;;;3.27;63.48;99510.77;1783650;78;21048;-58
2022/02/03 02:51:50;;;;;;;14.03;8.95;;;;;;;3.35;63.41;99516.80;1767199;79;21049;-58
2022/02/03 02:57:08;;;;;;;17.10;9.30;;;;;;;3.51;63.39;99518.78;1715411;79;21960;-58
2022/02/03 02:59:58;;;;;;;19.05;10.32;;;;;;;3.59;63.42;99518.27;1729705;80;21117;-58
2022/02/03 03:30:11;;;;;;;20.15;11.78;;;;;;;3.77;62.75;99555.75;1772521;78;21087;-58
2022/02/03 03:35:42;;;;;;;21.80;11.85;;;;;;;3.85;63.06;99562.12;1788315;78;21074;-57
2022/02/03 03:38:07;;;;;;;20.90;11.60;;;;;;;3.95;63.01;99566.71;1746277;80;22337;-58
2022/02/03 03:40:35;;;;;;;22.22;11.43;;;;;;;3.94;62.69;99566.36;1765310;79;21086;-58
2022/02/03 03:43:08;;;;;;;17.95;10.93;;;;;;;3.93;62.63;99564.69;1741943;80;22173;-58
2022/02/03 03:45:38;;;;;;;19.37;11.73;;;;;;;3.91;62.68;99564.30;1735234;80;21098;-58
2022/02/03 03:48:07;;;;;;;17.02;10.23;;;;;;;3.87;62.78;99573.26;1742760;79;21110;-58
2022/02/03 03:50:36;;;;;;;17.92;11.20;;;;;;;3.86;62.68;99576.78;1759371;79;21161;-58
2022/02/03 03:53:16;;;;;;;16.85;10.98;;;;;;;3.79;62.79;99570.80;1737810;80;21097;-57
2022/02/03 03:55:54;;;;;;;20.08;11.53;;;;;;;3.76;62.83;99570.98;1788853;78;21038;-58
2022/02/03 03:58:38;;;;;;;17.48;11.22;;;;;;;3.71;63.00;99572.58;1772665;78;21059;-58
2022/02/03 04:31:53;;;;;;;22.60;11.90;;;;;;;3.65;63.04;99596.41;1812129;76;21103;-59
2022/02/03 04:34:18;;;;;;;24.63;12.03;;;;;;;3.61;63.00;99600.13;1825851;76;21147;-58
2022/02/03 04:42:31;;;;;;;16.23;10.25;;;;;;;3.51;63.35;99591.62;1831757;76;21097;-58
2022/02/03 04:45:12;;;;;;;17.80;10.65;;;;;;;3.58;63.36;99586.00;1789770;76;20978;-59
2022/02/03 04:51:39;;;;;;;18.50;10.93;;;;;;;3.74;63.22;99600.19;1831033;76;21034;-59
2022/02/03 04:57:42;;;;;;;18.98;11.00;;;;;;;3.77;63.07;99604.72;1812108;77;21130;-58
2022/02/03 05:03:38;;;;;;;22.32;11.63;;;;;;;3.72;63.15;99610.21;1815954;76;21044;-58
2022/02/03 05:06:35;;;;;;;18.20;11.12;;;;;;;3.67;63.17;99615.35;1828925;76;21038;-58
2022/02/03 05:10:02;;;;;;;16.50;10.13;;;;;;;3.65;63.12;99615.92;1823752;76;21014;-59
2022/02/03 05:12:53;;;;;;;18.85;10.40;;;;;;;3.60;63.13;99627.91;1829771;76;21256;-58
2022/02/03 05:25:00;;;;;;;16.55;10.82;;;;;;;3.53;63.47;99638.31;1815200;76;21030;-58
2022/02/03 05:34:33;;;;;;;18.60;11.53;;;;;;;3.65;63.29;99647.97;1796153;76;21040;-59
2022/02/03 05:42:37;;;;;;;18.40;11.40;;;;;;;3.68;63.33;99656.03;1680815;83;21117;-57
2022/02/03 05:48:27;;;;;;;16.17;11.18;;;;;;;3.61;63.30;99670.36;1830969;76;21067;-59
2022/02/03 06:02:29;;;;;;;16.35;10.75;;;;;;;3.54;63.37;99679.84;1837302;76;21807;-59
2022/02/03 06:04:45;;;;;;;15.28;9.63;;;;;;;3.54;63.37;99679.84;1840374;76;21296;-61
2022/02/03 06:15:15;;;;;;;18.95;10.28;;;;;;;3.86;62.87;99696.98;1834898;76;22130;-59
2022/02/03 06:21:19;;;;;;;18.60;10.38;;;;;;;3.94;62.70;99703.84;1836016;76;21038;-58
2022/02/03 06:23:30;;;;;;;18.55;12.73;;;;;;;3.94;62.68;99705.62;1834959;76;21124;-58
2022/02/03 06:28:42;;;;;;;20.52;11.30;;;;;;;3.91;62.86;99711.36;1837637;76;21188;-59
2022/02/03 06:31:05;;;;;;;16.02;11.15;;;;;;;3.94;62.90;99710.34;1840135;76;21410;-59
2022/02/03 06:33:31;;;;;;;19.92;11.18;;;;;;;3.94;62.62;99713.43;1840215;76;21027;-58
2022/02/03 06:35:58;;;;;;;15.68;10.05;;;;;;;3.93;62.55;99719.55;1829353;76;21022;-58
2022/02/03 06:38:24;;;;;;;15.45;9.80;;;;;;;3.93;62.63;99719.08;1832241;76;21605;-59
2022/02/03 06:40:51;;;;;;;13.80;9.00;;;;;;;3.97;62.77;99716.67;1799115;77;21078;-59
2022/02/03 06:43:18;;;;;;;24.37;9.35;;;;;;;4.00;62.69;99728.20;1841913;76;21121;-59
2022/02/03 06:45:49;;;;;;;15.75;9.20;;;;;;;4.03;62.56;99729.28;1839611;76;21022;-60
2022/02/03 06:48:17;;;;;;;16.17;9.90;;;;;;;4.04;62.56;99723.62;1830403;76;21556;-59
2022/02/03 06:50:46;;;;;;;18.62;9.03;;;;;;;4.08;62.61;99725.09;1833612;76;21084;-60
2022/02/03 06:53:19;;;;;;;18.25;9.10;;;;;;;4.16;62.46;99725.91;1839320;76;21117;-59
2022/02/03 06:56:02;;;;;;;14.55;8.25;;;;;;;4.31;62.26;99729.31;1854913;76;21559;-58
2022/02/03 06:58:35;;;;;;;14.28;8.40;;;;;;;4.39;62.05;99735.69;1850960;76;21512;-60
2022/02/03 07:01:05;;;;;;;16.67;8.75;;;;;;;4.48;62.12;99732.95;1830809;76;22174;-60
2022/02/03 07:03:31;;;;;;;13.62;8.63;;;;;;;4.52;62.04;99736.19;1802021;76;21042;-59
2022/02/03 07:05:55;;;;;;;18.77;9.33;;;;;;;4.58;62.15;99741.00;1835845;76;21095;-58
2022/02/03 07:08:22;;;;;;;13.03;8.63;;;;;;;4.62;61.99;99742.46;1807899;76;21010;-58
2022/02/03 07:10:53;;;;;;;14.50;9.28;;;;;;;4.63;61.83;99749.35;1794204;77;21022;-59
2022/02/03 07:13:19;;;;;;;17.75;8.70;;;;;;;4.59;61.76;99750.03;1733938;79;21038;-58
2022/02/03 07:15:45;;;;;;;15.20;9.08;;;;;;;4.58;61.71;99754.03;1779896;79;21102;-59
2022/02/03 07:18:12;;;;;;;16.42;9.58;;;;;;;4.59;61.64;99750.47;1825466;76;21118;-59
2022/02/03 07:20:39;;;;;;;15.60;8.35;;;;;;;4.57;61.60;99758.86;1806279;77;21504;-60
2022/02/03 07:23:09;;;;;;;13.83;8.23;;;;;;;4.54;61.72;99756.00;1808060;76;21518;-59
2022/02/03 07:25:37;;;;;;;12.58;8.18;;;;;;;4.50;61.83;99764.94;1843454;76;21117;-59
2022/02/03 07:28:05;;;;;;;14.23;8.13;;;;;;;4.43;61.91;99762.37;1837167;76;22151;-59
2022/02/03 07:30:31;;;;;;;15.88;7.72;;;;;;;4.44;61.96;99767.95;1833000;76;21102;-57
2022/02/03 07:32:59;;;;;;;14.35;8.50;;;;;;;4.51;61.95;99767.92;1813687;76;21102;-60
2022/02/03 07:35:32;;;;;;;13.83;7.95;;;;;;;4.60;61.92;99774.30;1831669;76;21002;-58
2022/02/03 07:37:57;;;;;;;14.65;7.92;;;;;;;4.65;61.78;99775.66;1828756;76;21097;-59
2022/02/03 07:40:24;;;;;;;14.70;8.60;;;;;;;4.64;61.82;99781.00;1837594;76;21002;-59
2022/02/03 07:42:51;;;;;;;13.43;8.40;;;;;;;4.65;61.88;99773.06;1834403;76;21086;-58
2022/02/03 07:45:19;;;;;;;15.53;9.43;;;;;;;4.68;61.86;99778.55;1840130;76;21001;-57
2022/02/03 07:47:52;;;;;;;15.03;9.50;;;;;;;4.70;61.96;99777.16;1843479;76;21425;-58
2022/02/03 07:50:18;;;;;;;16.55;10.23;;;;;;;4.74;61.92;99776.00;1832421;76;21053;-57
2022/02/03 07:52:46;;;;;;;19.02;10.58;;;;;;;4.74;61.79;99780.77;1832496;76;21043;-55
2022/02/03 07:55:12;;;;;;;20.02;11.83;;;;;;;4.71;61.78;99784.02;1807183;77;21201;-57
2022/02/03 07:57:47;;;;;;;16.23;9.80;;;;;;;4.69;61.80;99788.50;1831524;76;21090;-58
2022/02/03 08:00:15;;;;;;;14.80;8.93;;;;;;;4.66;61.84;99788.25;1808208;76;21506;-59
2022/02/03 08:02:44;;;;;;;15.43;8.03;;;;;;;4.61;61.98;99783.33;1834055;76;21850;-58
2022/02/03 08:05:16;;;;;;;13.08;7.60;;;;;;;4.59;62.21;99796.07;1835837;76;21117;-58
2022/02/03 08:08:04;;;;;;;13.30;8.53;;;;;;;4.62;62.14;99790.22;1833083;76;21776;-58
2022/02/03 08:10:40;;;;;;;16.15;9.15;;;;;;;4.72;62.05;99794.82;1805532;77;21026;-58
2022/02/03 08:13:06;;;;;;;14.10;7.97;;;;;;;4.77;61.96;99800.09;1724923;81;21113;-58
2022/02/03 08:15:35;;;;;;;15.63;9.50;;;;;;;4.82;61.98;99797.19;1804352;76;21705;-58
2022/02/03 08:18:05;;;;;;;14.80;8.53;;;;;;;4.86;61.99;99799.12;1837340;76;21061;-58
2022/02/03 08:20:32;;;;;;;18.10;8.73;;;;;;;4.90;62.02;99807.95;1837492;76;21598;-58
2022/02/03 08:23:24;;;;;;;13.13;9.30;;;;;;;4.95;61.92;99811.57;1796214;77;21093;-58
2022/02/03 08:25:40;;;;;;;15.05;8.53;;;;;;;4.94;61.92;99802.92;1826391;76;21053;-58
2022/02/03 08:28:33;;;;;;;19.27;11.75;;;;;;;4.98;61.92;99805.69;1828223;76;21522;-58
2022/02/03 08:30:47;;;;;;;25.40;13.45;;;;;;;5.00;61.74;99803.80;1831542;76;21328;-58
2022/02/03 08:33:18;;;;;;;31.57;16.35;;;;;;;5.01;61.73;99806.78;1826908;76;21058;-58
2022/02/03 08:35:45;;;;;;;23.55;12.53;;;;;;;5.00;61.74;99806.41;1828977;76;21078;-59
2022/02/03 08:40:57;;;;;;;8.73;4.42;;;;;;;5.03;61.32;99821.03;1837653;76;21046;-58
2022/02/03 08:43:14;;;;;;;8.90;4.80;;;;;;;4.99;61.34;99817.80;1831394;76;21027;-60
2022/02/03 08:45:41;;;;;;;11.53;5.90;;;;;;;5.03;61.51;99820.55;1832392;76;21619;-58
2022/02/03 08:48:07;;;;;;;9.38;5.45;;;;;;;5.08;61.79;99829.38;1824371;76;21146;-60
2022/02/03 08:50:35;;;;;;;7.60;4.10;;;;;;;5.11;61.64;99834.41;1806387;77;21122;-59
2022/02/03 08:53:08;;;;;;;7.45;4.03;;;;;;;5.03;61.29;99830.98;1831204;76;21565;-59
2022/02/03 08:55:42;;;;;;;8.00;4.62;;;;;;;4.96;61.54;99845.37;1831024;77;21836;-59
2022/02/03 09:28:10;;;;;;;10.65;4.92;;;;;;;4.78;62.51;99843.48;1833104;76;21468;-58
2022/02/03 10:00:43;;;;;;;9.50;5.85;;;;;;;4.48;60.85;99886.66;1834736;76;21089;-60
2022/02/03 10:03:14;;;;;;;9.10;5.42;;;;;;;4.49;61.12;99891.39;1805263;76;21483;-59
2022/02/03 10:05:42;;;;;;;9.40;4.53;;;;;;;4.49;61.26;99890.95;1837335;76;21228;-59
2022/02/03 10:08:13;;;;;;;7.00;4.60;;;;;;;4.57;61.42;99891.31;1759551;76;21124;-58
2022/02/03 10:10:40;;;;;;;9.35;4.70;;;;;;;4.60;61.06;99898.91;1829806;76;20987;-60
2022/02/03 10:13:23;;;;;;;9.18;5.37;;;;;;;4.59;60.90;99895.09;1829208;76;21062;-59
2022/02/03 10:16:04;;;;;;;7.53;4.42;;;;;;;4.52;61.14;99903.76;1748389;79;21079;-59
2022/02/03 10:18:32;;;;;;;8.00;4.28;;;;;;;4.45;61.29;99909.84;1766629;78;21857;-59
2022/02/03 10:21:00;;;;;;;10.03;5.58;;;;;;;4.37;60.90;99906.88;1766231;79;21054;-58
2022/02/03 10:23:28;;;;;;;7.65;4.53;;;;;;;4.32;60.93;99906.77;1770489;79;21090;-58
2022/02/03 10:26:09;;;;;;;10.78;6.40;;;;;;;4.22;60.47;99911.26;1747616;80;21119;-60
2022/02/03 10:28:37;;;;;;;10.78;5.67;;;;;;;4.19;61.43;99914.05;1773631;78;21153;-59
2022/02/03 10:31:05;;;;;;;9.08;5.83;;;;;;;4.17;61.49;99926.33;1760562;79;22086;-58
2022/02/03 10:33:37;;;;;;;9.90;5.47;;;;;;;4.20;61.39;99933.95;1760614;79;21069;-58
2022/02/03 10:36:15;;;;;;;9.20;5.15;;;;;;;4.20;60.52;99930.05;1723601;80;21121;-60
2022/02/03 10:41:26;;;;;;;10.15;5.95;;;;;;;4.13;60.53;99940.45;1719849;81;21062;-58
2022/02/03 10:44:10;;;;;;;11.70;6.60;;;;;;;4.05;60.24;99946.58;1799193;78;21567;-59
2022/02/03 11:00:36;;;;;;;12.45;5.53;;;;;;;3.77;58.47;99947.40;1741225;79;21781;-58
2022/02/03 11:03:09;;;;;;;10.15;5.10;;;;;;;3.72;58.41;99951.56;1772344;79;21099;-60
2022/02/03 11:05:39;;;;;;;9.10;5.78;;;;;;;3.62;58.31;99955.63;1761411;79;21002;-58
2022/02/03 11:12:56;;;;;;;15.88;8.98;;;;;;;3.33;59.12;99958.14;1772747;79;21022;-60
2022/02/03 11:15:28;;;;;;;23.18;15.88;;;;;;;3.26;58.96;99974.55;1747193;79;21027;-60
2022/02/03 11:17:57;;;;;;;11.70;7.85;;;;;;;3.22;59.34;99969.61;1740773;79;21095;-60
2022/02/03 11:20:27;;;;;;;14.65;9.20;;;;;;;3.21;59.05;99984.81;1768629;78;21521;-59
2022/02/03 11:23:12;;;;;;;12.13;6.37;;;;;;;3.21;59.09;99987.42;1768426;78;21065;-59
2022/02/03 11:25:45;;;;;;;9.68;5.80;;;;;;;3.07;59.38;99972.13;1765335;78;21055;-58
2022/02/03 11:28:18;;;;;;;9.90;6.05;;;;;;;3.10;59.37;99983.66;1769406;79;20985;-58
2022/02/03 11:44:12;;;;;;;8.28;5.10;;;;;;;2.95;59.84;99995.73;1736352;80;21073;-59
2022/02/03 11:57:30;;;;;;;9.38;5.53;;;;;;;2.84;58.79;100001.13;1718981;81;20979;-56
2022/02/03 12:11:53;;;;;;;12.63;6.97;;;;;;;2.74;59.63;100019.83;1713364;80;21045;-59
2022/02/03 12:14:32;;;;;;;11.75;6.55;;;;;;;2.76;59.93;100027.08;1699338;81;21239;-58
2022/02/03 12:22:02;;;;;;;11.75;6.58;;;;;;;2.86;61.43;100048.66;1693209;82;21742;-59
2022/02/03 12:24:46;;;;;;;11.48;6.37;;;;;;;2.85;61.61;100055.62;1695354;83;21130;-61
2022/02/03 12:27:37;;;;;;;10.30;6.10;;;;;;;2.80;61.35;100055.03;1698933;81;21076;-59
2022/02/03 12:30:08;;;;;;;9.83;5.62;;;;;;;2.74;61.11;100052.31;1718615;81;21271;-60
2022/02/03 12:33:02;;;;;;;12.20;6.22;;;;;;;2.68;61.74;100056.52;1717333;81;21187;-59
2022/02/03 12:38:04;;;;;;;10.15;5.83;;;;;;;2.53;61.68;100056.86;1719402;81;21113;-58
2022/02/03 12:40:42;;;;;;;9.85;6.45;;;;;;;2.50;62.03;100074.36;1707256;81;21811;-58
2022/02/03 12:43:27;;;;;;;11.88;5.87;;;;;;;2.50;62.03;100074.36;1717958;80;21098;-59
2022/02/03 12:45:42;;;;;;;12.40;5.47;;;;;;;2.47;61.49;100069.31;1715235;81;21042;-59
2022/02/03 12:48:10;;;;;;;9.88;5.92;;;;;;;2.50;61.98;100084.75;1729463;80;20984;-58
2022/02/03 12:50:40;;;;;;;11.12;6.70;;;;;;;2.51;61.28;100083.38;1740560;80;21535;-59
2022/02/03 12:53:07;;;;;;;12.00;5.35;;;;;;;2.56;61.36;100088.34;1738799;79;21081;-60
2022/02/03 12:55:39;;;;;;;11.83;6.90;;;;;;;2.52;60.51;100095.89;1760544;79;21086;-59
2022/02/03 12:58:15;;;;;;;10.08;6.08;;;;;;;2.53;60.65;100092.39;1756575;79;21033;-58
2022/02/03 13:01:13;;;;;;;11.55;6.97;;;;;;;2.54;60.71;100087.55;1759428;79;21051;-59
2022/02/03 13:03:18;;;;;;;12.47;7.50;;;;;;;2.57;60.67;100084.80;1756052;79;22363;-59
2022/02/03 13:05:55;;;;;;;13.05;7.30;;;;;;;2.59;60.80;100084.29;1734580;80;21098;-59
2022/02/03 13:08:39;;;;;;;11.28;7.17;;;;;;;2.67;60.64;100091.67;1762165;79;20984;-57
2022/02/03 13:11:26;;;;;;;12.28;7.25;;;;;;;2.66;60.58;100087.41;1763926;79;21943;-60
2022/02/03 13:14:00;;;;;;;13.88;8.40;;;;;;;2.69;60.47;100093.28;1740141;80;21481;-58
2022/02/03 13:16:22;;;;;;;11.15;5.97;;;;;;;2.70;60.63;100097.54;1759356;79;21448;-58
2022/02/03 13:19:21;;;;;;;12.20;8.25;;;;;;;2.59;60.27;100106.38;1754078;79;21747;-59
2022/02/03 13:26:58;;;;;;;12.85;6.80;;;;;;;2.56;60.20;100106.52;1757512;79;21066;-59
2022/02/03 13:29:44;;;;;;;12.63;7.10;;;;;;;2.50;59.51;100109.42;1758798;80;21094;-58
2022/02/03 13:32:12;;;;;;;10.00;6.97;;;;;;;2.51;59.07;100104.63;1752657;79;21859;-59
2022/02/03 13:34:50;;;;;;;9.48;6.85;;;;;;;2.54;58.95;100121.32;1756060;80;21086;-58
2022/02/03 13:37:25;;;;;;;12.45;7.00;;;;;;;2.59;58.88;100121.95;1756552;79;21732;-59
2022/02/03 13:39:48;;;;;;;10.58;6.50;;;;;;;2.55;58.16;100119.95;1758502;79;21073;-59
2022/02/03 13:42:16;;;;;;;13.80;7.50;;;;;;;2.55;57.83;100128.20;1738992;79;21102;-59
2022/02/03 13:44:43;;;;;;;11.40;6.95;;;;;;;2.43;57.61;100127.54;1754269;79;22699;-61
2022/02/03 13:47:25;;;;;;;13.53;7.58;;;;;;;2.41;57.60;100128.91;1755780;79;22449;-59
2022/02/03 13:50:21;;;;;;;10.13;6.45;;;;;;;2.39;57.58;100130.28;1757081;79;21087;-60
2022/02/03 14:16:20;;;;;;;17.67;6.60;;;;;;;2.21;56.68;100166.25;1735637;80;21092;-61
2022/02/03 14:29:23;;;;;;;11.93;6.85;;;;;;;2.08;56.31;100193.70;1736275;80;21043;-60
2022/02/03 14:31:56;;;;;;;9.93;6.45;;;;;;;2.07;56.08;100188.12;1736607;79;21610;-59
2022/02/03 14:34:23;;;;;;;10.80;6.72;;;;;;;2.04;56.21;100199.04;1731015;79;21056;-60
2022/02/03 14:36:47;;;;;;;12.23;7.85;;;;;;;2.03;55.84;100197.81;1761570;79;21013;-59
2022/02/03 14:39:20;;;;;;;13.38;6.20;;;;;;;2.08;55.94;100211.88;1760555;79;21232;-60
2022/02/03 14:41:47;;;;;;;12.00;7.22;;;;;;;2.08;55.33;100206.69;1760629;79;21117;-61
2022/02/03 14:44:17;;;;;;;11.25;6.87;;;;;;;2.03;54.83;100210.36;1760799;79;21035;-61
2022/02/03 14:46:44;;;;;;;13.72;7.60;;;;;;;2.02;55.12;100220.81;1762355;79;21058;-60
2022/02/03 14:49:10;;;;;;;11.05;6.25;;;;;;;2.02;55.12;100220.81;1757816;79;21414;-59
2022/02/03 14:51:56;;;;;;;10.53;6.03;;;;;;;2.01;54.74;100234.22;1753842;79;22261;-59
2022/02/03 14:59:39;;;;;;;11.60;5.53;;;;;;;1.91;54.09;100232.14;1732482;80;21403;-58
2022/02/03 15:02:08;;;;;;;9.00;4.78;;;;;;;1.83;53.71;100237.67;1735360;80;21102;-60
2022/02/03 15:04:40;;;;;;;7.85;4.25;;;;;;;1.78;53.69;100228.82;1755364;79;21163;-59
2022/02/03 15:07:08;;;;;;;8.03;4.40;;;;;;;1.71;54.18;100250.75;1738155;80;21134;-58
2022/02/03 15:15:01;;;;;;;11.38;4.97;;;;;;;1.60;54.66;100261.62;1730042;80;21093;-58
2022/02/03 15:17:31;;;;;;;8.15;4.62;;;;;;;1.61;54.89;100261.16;1759423;80;21106;-59
2022/02/03 15:20:02;;;;;;;10.23;5.30;;;;;;;1.61;55.16;100254.67;1756816;79;21127;-59
2022/02/03 15:22:26;;;;;;;10.65;5.67;;;;;;;1.65;55.27;100265.31;1730979;80;21024;-58
2022/02/03 15:24:53;;;;;;;13.60;5.78;;;;;;;1.67;55.40;100260.42;1740879;79;21074;-59
2022/02/03 15:27:20;;;;;;;13.25;6.80;;;;;;;1.74;55.62;100273.12;1756966;79;21071;-58
2022/02/03 15:29:49;;;;;;;12.13;6.53;;;;;;;1.77;55.83;100263.91;1736432;79;21087;-60
2022/02/03 15:32:15;;;;;;;14.98;7.35;;;;;;;1.80;55.78;100274.98;1756205;79;21523;-59
2022/02/03 15:34:42;;;;;;;13.40;7.25;;;;;;;1.85;55.51;100271.73;1737483;80;21168;-59
2022/02/03 15:37:16;;;;;;;13.58;6.72;;;;;;;1.82;55.76;100284.00;1754737;79;21074;-59
2022/02/03 15:39:46;;;;;;;13.03;7.42;;;;;;;1.86;55.77;100282.94;1757075;80;21553;-60
2022/02/03 15:42:07;;;;;;;12.25;6.70;;;;;;;1.84;55.92;100290.78;1735924;80;21089;-59
2022/02/03 15:44:40;;;;;;;14.13;7.72;;;;;;;1.88;56.27;100292.78;1762462;79;21067;-59
2022/02/03 15:47:08;;;;;;;13.28;7.45;;;;;;;1.86;55.88;100290.72;1742684;80;21087;-58
2022/02/03 15:50:10;;;;;;;15.85;7.67;;;;;;;1.91;56.03;100300.44;1739026;80;21076;-58
2022/02/03 16:03:20;;;;;;;14.10;9.00;;;;;;;1.87;56.92;100319.66;1710370;81;21110;-60
2022/02/03 16:43:50;;;;;;;7.65;3.87;;;;;;;0.95;55.22;100381.91;1768532;79;21076;-57
2022/02/03 16:53:45;;;;;;;23.35;12.35;;;;;;;0.93;55.42;100401.41;1708672;82;21088;-59
2022/02/03 16:56:13;;;;;;;18.95;10.30;;;;;;;1.00;55.86;100422.73;1708441;82;21139;-58
2022/02/03 16:58:45;;;;;;;21.90;10.15;;;;;;;1.00;55.86;100422.73;1714752;81;21086;-59
2022/02/03 17:01:13;;;;;;;19.02;11.20;;;;;;;1.02;55.96;100418.33;1710139;81;21121;-59
2022/02/03 17:03:40;;;;;;;20.62;11.08;;;;;;;1.02;55.23;100419.62;1688497;82;21038;-59
2022/02/03 17:06:06;;;;;;;16.62;8.80;;;;;;;1.02;55.23;100419.62;1683247;82;21784;-59
2022/02/03 17:08:33;;;;;;;27.37;13.40;;;;;;;0.96;54.93;100427.20;1715082;81;21881;-59
2022/02/03 17:10:59;;;;;;;34.45;18.67;;;;;;;0.82;55.64;100416.05;1709392;81;21631;-59
2022/02/03 17:13:26;;;;;;;43.80;18.02;;;;;;;0.82;55.64;100416.05;1711641;81;21090;-58
2022/02/03 17:15:52;;;;;;;15.55;7.12;;;;;;;0.83;55.36;100425.98;1708568;81;21046;-58
2022/02/03 17:18:23;;;;;;;8.38;4.42;;;;;;;0.77;53.95;100428.34;1712671;81;21152;-58
2022/02/03 17:20:49;;;;;;;9.30;5.35;;;;;;;0.77;53.95;100428.34;1707886;81;21816;-58
2022/02/03 17:23:19;;;;;;;9.08;3.98;;;;;;;0.68;54.43;100436.48;1700792;81;21721;-58
2022/02/03 17:28:47;;;;;;;9.85;4.97;;;;;;;0.52;54.21;100434.48;1690285;83;21526;-60
2022/02/03 17:31:15;;;;;;;12.13;5.95;;;;;;;0.39;54.07;100429.36;1686486;83;21828;-59
2022/02/03 18:28:49;;;;;;;8.78;4.03;;;;;;;-0.29;51.03;100457.61;1751314;79;21118;-61
2022/02/03 18:30:22;;;;;;;6.85;3.12;;;;;;;-0.22;51.15;100464.28;1756160;79;21544;-58
2022/02/03 18:51:01;;;;;;;9.90;3.90;;;;;;;0.27;50.50;100465.60;1750885;79;21078;-59
2022/02/03 18:56:04;;;;;;;8.58;3.70;;;;;;;0.34;50.53;100457.16;1751118;79;22206;-59
2022/02/03 19:09:28;;;;;;;7.72;3.67;;;;;;;0.42;50.01;100462.05;1754340;79;21373;-59
2022/02/03 19:27:27;;;;;;;8.25;3.77;;;;;;;0.40;49.44;100467.73;1751782;81;21112;-59
2022/02/03 20:05:17;;;;;;;6.58;3.10;;;;;;;0.44;48.66;100478.36;1750801;81;21039;-59
2022/02/03 20:07:43;;;;;;;8.25;3.02;;;;;;;0.39;48.25;100479.84;1708149;81;21062;-58
2022/02/03 20:10:11;;;;;;;6.05;3.05;;;;;;;0.36;48.53;100473.48;1712079;81;21220;-59
2022/02/03 20:12:29;;;;;;;7.95;3.17;;;;;;;0.38;48.66;100470.84;1745724;81;21265;-59
2022/02/03 20:14:57;;;;;;;7.53;3.12;;;;;;;0.35;48.97;100467.47;1752190;80;21039;-59
2022/02/03 20:17:27;;;;;;;9.58;3.65;;;;;;;0.36;48.99;100470.43;1749439;81;21075;-60
2022/02/03 20:19:52;;;;;;;7.25;3.37;;;;;;;0.35;48.91;100466.17;1751838;81;21058;-59
2022/02/03 20:22:19;;;;;;;8.35;3.83;;;;;;;0.39;48.33;100463.02;1733872;79;21143;-59
2022/02/03 20:24:47;;;;;;;7.58;2.77;;;;;;;0.39;48.33;100463.02;1751952;79;21594;-60
2022/02/03 20:27:16;;;;;;;8.50;3.58;;;;;;;0.39;48.36;100467.33;1749403;79;21078;-59
2022/02/03 20:29:43;;;;;;;7.58;2.95;;;;;;;0.35;48.21;100462.72;1751938;80;21091;-59
2022/02/03 20:32:09;;;;;;;7.17;3.35;;;;;;;0.32;47.66;100455.06;1727887;80;21094;-59
2022/02/03 20:34:37;;;;;;;6.35;3.25;;;;;;;0.32;47.90;100453.77;1749743;79;21062;-59
2022/02/03 20:37:03;;;;;;;7.95;3.47;;;;;;;0.36;47.68;100459.24;1750350;79;21162;-59
2022/02/03 20:39:29;;;;;;;8.30;3.42;;;;;;;0.21;47.32;100450.74;1733405;80;21110;-60
2022/02/03 20:41:56;;;;;;;7.20;2.95;;;;;;;0.21;47.32;100450.74;1749734;79;22343;-59
2022/02/03 20:44:23;;;;;;;7.25;3.67;;;;;;;0.20;47.51;100449.88;1753189;79;22354;-60
2022/02/03 20:46:49;;;;;;;6.40;3.00;;;;;;;0.21;47.28;100457.21;1756335;79;21067;-59
2022/02/03 20:49:16;;;;;;;9.58;3.45;;;;;;;0.21;47.28;100457.21;1730763;80;21128;-59
2022/02/03 20:51:43;;;;;;;6.22;2.77;;;;;;;0.18;47.30;100451.25;1746044;80;21039;-59
2022/02/03 20:54:10;;;;;;;7.28;3.83;;;;;;;0.11;47.24;100457.52;1752325;79;21070;-59
2022/02/03 20:56:37;;;;;;;10.55;3.65;;;;;;;0.12;47.43;100456.64;1712708;81;21071;-60
2022/02/03 20:59:06;;;;;;;7.92;3.50;;;;;;;0.15;47.50;100450.49;1735566;80;21089;-59
2022/02/03 21:02:01;;;;;;;9.93;3.50;;;;;;;0.14;47.37;100452.70;1788197;78;21101;-52
2022/02/03 21:04:33;;;;;;;9.33;3.10;;;;;;;0.08;47.15;100461.52;1743907;81;21083;-52
2022/02/03 21:06:53;;;;;;;6.75;2.65;;;;;;;0.05;47.39;100463.36;1739787;80;21077;-52
2022/02/03 21:09:21;;;;;;;7.58;2.75;;;;;;;0.06;47.51;100462.02;1740738;80;21425;-52
2022/02/03 21:11:48;;;;;;;7.92;3.45;;;;;;;0.08;47.69;100462.80;1689688;83;21027;-52
2022/02/03 21:14:16;;;;;;;7.97;3.50;;;;;;;0.08;47.62;100469.27;1739315;80;21127;-52
2022/02/03 21:16:50;;;;;;;8.38;3.60;;;;;;;0.08;47.52;100461.52;1736466;80;21091;-52
2022/02/03 21:19:12;;;;;;;7.50;3.08;;;;;;;0.08;47.06;100469.73;1736626;80;21068;-51
2022/02/03 21:21:39;;;;;;;5.12;2.37;;;;;;;0.10;47.48;100466.20;1690683;82;21546;-51
2022/02/03 21:24:07;;;;;;;6.50;3.08;;;;;;;0.10;47.48;100466.20;1712696;81;21043;-52
2022/02/03 21:26:38;;;;;;;6.53;3.25;;;;;;;0.07;47.16;100468.89;1717698;81;21793;-51
2022/02/03 21:29:04;;;;;;;6.12;2.35;;;;;;;0.11;47.16;100469.17;1714331;81;21066;-52
2022/02/03 21:31:31;;;;;;;5.75;2.92;;;;;;;0.17;46.89;100471.55;1718732;81;21077;-52
2022/02/03 21:33:58;;;;;;;8.08;3.62;;;;;;;0.15;46.97;100472.06;1715609;82;21126;-52
2022/02/03 21:36:27;;;;;;;6.22;2.98;;;;;;;0.17;46.96;100474.14;1715846;81;21107;-53
2022/02/03 21:38:53;;;;;;;6.97;3.35;;;;;;;0.20;46.49;100473.17;1733353;80;21531;-51
2022/02/03 21:41:20;;;;;;;7.20;3.00;;;;;;;0.20;46.49;100473.17;1730193;81;21105;-53
2022/02/03 21:43:48;;;;;;;7.10;3.33;;;;;;;0.22;46.81;100479.16;1729013;80;21129;-52